Time;durP1;ratioP1;P1;durP2;ratioP2;P2;SDS_P1;SDS_P2;PMS_P1;PMS_P2;Temp;Humidity;BMP_temperature;BMP_pressure;BME280_temperature;BME280_humidity;BME280_pressure;Samples;Min_cycle;Max_cycle;Signal;HPM_P1;HPM_P2
2022/08/15 00:00:33;;;;;;;9.37;5.20;;;19.90;99.90;;;;;;4912919;29;20946;-84
2022/08/15 00:03:02;;;;;;;12.02;5.78;;;19.90;99.90;;;;;;4881771;29;20491;-84
2022/08/15 00:05:38;;;;;;;9.82;5.50;;;19.90;99.90;;;;;;4898383;29;20497;-84
2022/08/15 00:08:10;;;;;;;10.80;5.25;;;19.90;99.90;;;;;;4907307;29;20477;-84
2022/08/15 00:11:10;;;;;;;9.15;5.10;;;19.90;99.90;;;;;;4898135;29;20412;-84
2022/08/15 00:13:51;;;;;;;8.88;5.50;;;19.90;99.90;;;;;;4896832;29;20473;-84
2022/08/15 00:16:33;;;;;;;10.65;5.60;;;19.90;99.90;;;;;;4898236;29;20415;-83
2022/08/15 00:19:29;;;;;;;8.40;5.60;;;19.90;99.90;;;;;;4897927;29;20417;-83
2022/08/15 00:22:04;;;;;;;6.88;5.28;;;19.90;99.90;;;;;;4905829;29;20453;-83
2022/08/15 00:24:48;;;;;;;6.72;5.32;;;19.80;99.90;;;;;;4895528;29;20422;-84
2022/08/15 00:27:20;;;;;;;10.27;5.53;;;19.80;99.90;;;;;;4897978;29;20468;-83
2022/08/15 00:29:54;;;;;;;10.55;5.07;;;19.80;99.90;;;;;;4897869;29;20413;-85
2022/08/15 00:32:23;;;;;;;8.88;5.50;;;19.80;99.90;;;;;;4889666;29;20419;-83
2022/08/15 00:38:16;;;;;;;7.30;5.25;;;19.80;99.90;;;;;;4896942;29;20413;-82
2022/08/15 00:43:52;;;;;;;9.32;5.40;;;19.80;99.90;;;;;;4896462;29;20421;-84
2022/08/15 00:46:22;;;;;;;9.63;5.63;;;19.80;99.90;;;;;;4896612;29;20477;-83
2022/08/15 00:48:51;;;;;;;9.48;5.60;;;19.80;99.90;;;;;;4912456;29;20397;-83
2022/08/15 00:51:39;;;;;;;10.23;5.63;;;19.80;99.90;;;;;;4911946;29;20417;-84
2022/08/15 00:54:26;;;;;;;8.65;6.00;;;19.80;99.90;;;;;;4891781;29;20494;-84
2022/08/15 00:57:22;;;;;;;9.50;5.40;;;19.80;99.90;;;;;;4889800;29;20927;-84
2022/08/15 01:00:23;;;;;;;10.60;5.70;;;19.80;99.90;;;;;;4897786;29;20412;-84
2022/08/15 01:03:05;;;;;;;8.52;4.88;;;19.80;99.90;;;;;;4887716;29;20465;-83
2022/08/15 01:05:49;;;;;;;9.23;5.30;;;19.70;99.90;;;;;;4892432;29;20399;-83
2022/08/15 01:08:22;;;;;;;8.40;5.53;;;19.80;99.90;;;;;;4906904;29;20418;-84
2022/08/15 01:11:21;;;;;;;8.80;5.60;;;19.80;99.90;;;;;;4890471;29;20421;-83
2022/08/15 01:13:52;;;;;;;8.57;5.90;;;19.70;99.90;;;;;;4896881;29;20425;-83
2022/08/15 01:16:31;;;;;;;8.30;5.53;;;19.70;99.90;;;;;;4901557;29;20449;-84
2022/08/15 01:19:24;;;;;;;11.20;6.30;;;19.70;99.90;;;;;;4896972;29;20417;-84
2022/08/15 01:22:02;;;;;;;9.50;5.95;;;19.70;99.90;;;;;;4909749;29;20415;-84
2022/08/15 01:24:45;;;;;;;9.68;6.20;;;19.70;99.90;;;;;;4902579;29;20485;-83
2022/08/15 01:28:05;;;;;;;8.48;6.63;;;19.80;99.90;;;;;;4896738;29;20413;-82
2022/08/15 01:30:45;;;;;;;8.93;5.93;;;19.70;99.90;;;;;;4897700;29;20481;-84
2022/08/15 01:33:38;;;;;;;11.80;6.25;;;19.70;99.90;;;;;;4901210;29;20788;-82
2022/08/15 01:36:08;;;;;;;11.13;7.03;;;19.70;99.90;;;;;;4898730;29;20409;-83
2022/08/15 01:39:16;;;;;;;9.63;6.03;;;19.70;99.90;;;;;;4911344;29;20410;-83
2022/08/15 01:41:52;;;;;;;9.40;6.13;;;19.70;99.90;;;;;;4910452;29;20405;-83
2022/08/15 01:44:43;;;;;;;8.75;6.00;;;19.70;99.90;;;;;;4890095;29;20413;-84
2022/08/15 01:47:33;;;;;;;9.10;5.55;;;19.70;99.90;;;;;;4907015;29;20901;-83
2022/08/15 01:50:12;;;;;;;9.03;6.33;;;19.70;99.90;;;;;;4910716;29;20949;-83
2022/08/15 01:53:04;;;;;;;7.00;6.30;;;19.70;99.90;;;;;;4905919;29;20417;-83
2022/08/15 01:55:57;;;;;;;9.18;6.53;;;19.70;99.90;;;;;;4891584;29;20407;-83
2022/08/15 01:58:28;;;;;;;10.37;6.10;;;19.70;99.90;;;;;;4910444;29;20787;-83
2022/08/15 02:01:16;;;;;;;8.68;6.70;;;19.60;99.90;;;;;;4908356;29;20451;-83
2022/08/15 02:03:47;;;;;;;7.47;6.50;;;19.60;99.90;;;;;;4894974;29;20500;-83
2022/08/15 02:06:25;;;;;;;8.68;6.70;;;19.60;99.90;;;;;;4894953;29;20800;-83
2022/08/15 02:09:12;;;;;;;8.57;6.55;;;19.70;99.90;;;;;;4910489;29;20481;-82
2022/08/15 02:12:05;;;;;;;10.17;6.10;;;19.70;99.90;;;;;;4909057;29;20429;-83
2022/08/15 02:14:53;;;;;;;9.07;6.53;;;19.70;99.90;;;;;;4894002;29;20444;-83
2022/08/15 02:17:21;;;;;;;10.00;6.25;;;19.70;99.90;;;;;;4896000;29;20416;-83
2022/08/15 02:19:51;;;;;;;7.57;6.78;;;19.70;99.90;;;;;;4895943;29;20401;-83
2022/08/15 02:22:23;;;;;;;9.43;6.15;;;19.70;99.90;;;;;;4892941;29;20433;-82
2022/08/15 02:24:57;;;;;;;8.32;6.82;;;19.70;99.90;;;;;;4910678;29;20896;-83
2022/08/15 02:27:32;;;;;;;9.40;7.07;;;19.70;99.90;;;;;;4896006;29;20441;-83
2022/08/15 02:30:15;;;;;;;10.53;7.23;;;19.70;99.90;;;;;;4900589;29;20423;-83
2022/08/15 02:32:46;;;;;;;8.05;6.95;;;19.70;99.90;;;;;;4900370;29;20417;-83
2022/08/15 02:35:16;;;;;;;10.60;6.68;;;19.70;99.90;;;;;;4900995;29;20862;-83
2022/08/15 02:37:45;;;;;;;9.77;8.00;;;19.60;99.90;;;;;;4900394;29;20401;-83
2022/08/15 02:40:29;;;;;;;8.65;6.88;;;19.60;99.90;;;;;;4907681;29;20474;-83
2022/08/15 02:43:15;;;;;;;10.73;7.00;;;19.60;99.90;;;;;;4905404;29;20479;-83
2022/08/15 02:45:49;;;;;;;10.33;7.00;;;19.60;99.90;;;;;;4898419;29;20467;-84
2022/08/15 02:48:40;;;;;;;10.27;7.00;;;19.60;99.90;;;;;;4899987;29;20445;-83
2022/08/15 02:51:31;;;;;;;8.85;7.03;;;19.60;99.90;;;;;;4885913;29;20424;-82
2022/08/15 02:54:22;;;;;;;7.88;6.95;;;19.60;99.90;;;;;;4910176;29;20432;-83
2022/08/15 02:57:09;;;;;;;10.02;7.05;;;19.60;99.90;;;;;;4907008;29;20423;-84
2022/08/15 02:59:43;;;;;;;11.47;6.80;;;19.50;99.90;;;;;;4906762;29;20899;-83
2022/08/15 03:02:17;;;;;;;7.90;7.10;;;19.50;99.90;;;;;;4907576;29;20948;-83
2022/08/15 03:05:01;;;;;;;8.70;6.90;;;19.50;99.90;;;;;;4906815;29;20450;-83
2022/08/15 03:07:31;;;;;;;8.23;6.73;;;19.50;99.90;;;;;;4912610;29;20450;-83
2022/08/15 03:10:03;;;;;;;10.70;6.80;;;19.50;99.90;;;;;;4912991;29;20768;-83
2022/08/15 03:12:55;;;;;;;9.95;7.10;;;19.50;99.90;;;;;;4912190;29;20461;-83
2022/08/15 03:15:48;;;;;;;8.77;7.03;;;19.50;99.90;;;;;;4905162;29;20904;-84
2022/08/15 03:18:32;;;;;;;8.50;6.72;;;19.50;99.90;;;;;;4898140;29;20413;-83
2022/08/15 03:21:07;;;;;;;9.38;6.45;;;19.50;99.90;;;;;;4913185;29;20417;-83
2022/08/15 03:23:46;;;;;;;10.23;6.88;;;19.50;99.90;;;;;;4888204;29;20426;-83
2022/08/15 03:26:19;;;;;;;10.93;6.55;;;19.50;99.90;;;;;;4904698;29;20417;-84
2022/08/15 03:29:05;;;;;;;10.95;6.85;;;19.40;99.90;;;;;;4897800;29;20444;-82
2022/08/15 03:31:47;;;;;;;9.75;7.13;;;19.40;99.90;;;;;;4906195;29;20475;-83
2022/08/15 03:34:21;;;;;;;9.50;7.00;;;19.40;99.90;;;;;;4913388;29;20425;-84
2022/08/15 03:36:57;;;;;;;10.88;7.07;;;19.40;99.90;;;;;;4904996;29;20425;-84
2022/08/15 03:39:28;;;;;;;8.27;6.78;;;19.40;99.90;;;;;;4904409;29;20476;-83
2022/08/15 03:41:56;;;;;;;9.70;6.93;;;19.40;99.90;;;;;;4912936;29;20401;-84
2022/08/15 03:44:25;;;;;;;7.72;6.32;;;19.40;99.90;;;;;;4897181;29;20792;-84
2022/08/15 03:47:00;;;;;;;7.93;7.10;;;19.40;99.90;;;;;;4911601;29;20925;-84
2022/08/15 03:49:32;;;;;;;8.82;6.60;;;19.40;99.90;;;;;;4913183;29;20424;-83
2022/08/15 03:52:19;;;;;;;9.00;6.70;;;19.30;99.90;;;;;;4889470;29;20419;-84
2022/08/15 03:55:05;;;;;;;9.32;6.93;;;19.40;99.90;;;;;;4897865;29;20397;-83
2022/08/15 03:57:44;;;;;;;9.02;6.72;;;19.30;99.90;;;;;;4895116;29;20413;-84
2022/08/15 04:00:46;;;;;;;8.30;7.30;;;19.40;99.90;;;;;;4907967;29;20805;-82
2022/08/15 04:03:26;;;;;;;9.38;7.15;;;19.40;99.90;;;;;;4913241;29;20449;-83
2022/08/15 04:06:02;;;;;;;8.75;7.47;;;19.40;99.90;;;;;;4891673;29;20906;-83
2022/08/15 04:08:35;;;;;;;10.90;7.40;;;19.30;99.90;;;;;;4883336;29;20810;-84
2022/08/15 04:11:28;;;;;;;8.90;7.03;;;19.30;99.90;;;;;;4907517;29;20401;-84
2022/08/15 04:14:06;;;;;;;8.18;6.65;;;19.40;99.90;;;;;;4912637;29;20521;-84
2022/08/15 04:16:59;;;;;;;10.48;7.65;;;19.40;99.90;;;;;;4899650;29;20888;-84
2022/08/15 04:19:41;;;;;;;10.00;7.65;;;19.30;99.90;;;;;;4907655;29;20407;-82
2022/08/15 04:22:49;;;;;;;11.02;7.72;;;19.30;99.90;;;;;;4909759;29;20396;-81
2022/08/15 04:25:31;;;;;;;10.50;7.53;;;19.30;99.90;;;;;;4911225;29;20490;-83
2022/08/15 04:28:06;;;;;;;11.37;7.47;;;19.30;99.90;;;;;;4897883;29;20488;-83
2022/08/15 04:30:54;;;;;;;11.73;8.35;;;19.40;99.90;;;;;;4902263;29;20405;-84
2022/08/15 04:33:26;;;;;;;11.02;8.15;;;19.40;99.90;;;;;;4897727;29;20448;-83
2022/08/15 04:36:18;;;;;;;11.73;7.95;;;19.40;99.90;;;;;;4909669;29;20929;-83
2022/08/15 04:38:51;;;;;;;13.93;9.30;;;19.40;99.90;;;;;;4891036;29;20454;-82
2022/08/15 04:41:20;;;;;;;13.50;10.27;;;19.40;99.90;;;;;;4898532;29;20419;-82
2022/08/15 04:44:05;;;;;;;10.68;8.73;;;19.40;99.90;;;;;;4911816;29;20959;-83
2022/08/15 04:46:33;;;;;;;10.18;8.10;;;19.40;99.90;;;;;;4896081;29;20421;-83
2022/08/15 04:49:03;;;;;;;9.90;8.48;;;19.40;99.90;;;;;;4903146;29;20432;-82
2022/08/15 04:51:37;;;;;;;10.13;8.13;;;19.50;99.90;;;;;;4900477;29;20401;-83
2022/08/15 04:54:08;;;;;;;9.32;7.95;;;19.50;99.90;;;;;;4904181;29;20499;-82
2022/08/15 04:56:39;;;;;;;10.52;7.90;;;19.50;99.90;;;;;;4912108;29;20412;-82
2022/08/15 04:59:21;;;;;;;9.65;8.18;;;19.50;99.90;;;;;;4893150;29;20512;-82
2022/08/15 05:02:12;;;;;;;10.40;7.97;;;19.50;99.90;;;;;;4911053;29;20413;-82
2022/08/15 05:05:02;;;;;;;11.27;8.70;;;19.50;99.90;;;;;;4887398;29;20424;-81
2022/08/15 05:07:32;;;;;;;10.55;8.02;;;19.50;99.90;;;;;;4910367;29;20409;-82
2022/08/15 05:10:04;;;;;;;10.60;8.13;;;19.50;99.90;;;;;;4896774;29;20445;-81
2022/08/15 05:12:41;;;;;;;12.57;9.33;;;19.60;99.90;;;;;;4896803;29;20508;-82
2022/08/15 05:15:11;;;;;;;11.57;9.55;;;19.60;99.90;;;;;;4886593;29;20426;-82
2022/08/15 05:17:41;;;;;;;24.40;19.83;;;19.60;99.90;;;;;;4885988;29;20428;-82
2022/08/15 05:20:24;;;;;;;14.18;12.38;;;19.70;99.90;;;;;;4905596;29;20432;-81
2022/08/15 05:23:06;;;;;;;17.40;12.20;;;19.70;99.90;;;;;;4895476;29;20452;-82
2022/08/15 05:25:44;;;;;;;13.63;10.23;;;19.80;99.90;;;;;;4889933;29;20461;-81
2022/08/15 05:28:14;;;;;;;11.68;10.20;;;19.80;99.90;;;;;;4892552;29;20444;-82
2022/08/15 05:30:58;;;;;;;13.77;10.50;;;19.80;99.90;;;;;;4893516;29;20925;-81
2022/08/15 05:33:45;;;;;;;13.13;10.40;;;19.90;99.90;;;;;;4896819;29;20425;-83
2022/08/15 05:36:33;;;;;;;12.95;11.25;;;20.00;99.90;;;;;;4895254;29;20413;-81
2022/08/15 05:39:23;;;;;;;13.73;10.93;;;20.00;99.90;;;;;;4911253;29;20413;-81
2022/08/15 05:42:37;;;;;;;12.70;11.00;;;20.00;99.90;;;;;;4895205;29;20428;-81
2022/08/15 05:45:22;;;;;;;12.75;11.00;;;20.10;99.90;;;;;;4894427;29;20418;-82
2022/08/15 05:48:14;;;;;;;14.00;10.52;;;20.10;99.90;;;;;;4895397;29;20409;-81
2022/08/15 05:51:46;;;;;;;12.82;10.93;;;20.10;99.90;;;;;;4905089;29;20880;-81
2022/08/15 05:54:44;;;;;;;14.88;10.90;;;20.10;99.90;;;;;;4885830;29;20426;-81
2022/08/15 05:57:26;;;;;;;14.63;10.57;;;20.20;99.90;;;;;;4910659;29;20426;-82
2022/08/15 06:00:07;;;;;;;14.17;10.80;;;20.20;99.90;;;;;;4899635;29;20882;-81
2022/08/15 06:02:58;;;;;;;11.33;10.23;;;20.20;99.90;;;;;;4896102;29;20916;-82
2022/08/15 06:05:35;;;;;;;12.02;10.75;;;20.20;99.90;;;;;;4900865;29;20488;-81
2022/08/15 06:08:12;;;;;;;12.52;10.27;;;20.20;99.90;;;;;;4897973;29;20425;-81
2022/08/15 06:11:11;;;;;;;13.97;10.80;;;20.30;99.90;;;;;;4893295;29;20708;-81
2022/08/15 06:13:55;;;;;;;13.88;10.57;;;20.30;99.90;;;;;;4907261;29;20841;-82
2022/08/15 06:16:38;;;;;;;11.93;10.60;;;20.40;99.90;;;;;;4913090;29;20424;-82
2022/08/15 06:19:20;;;;;;;13.97;11.37;;;20.50;99.90;;;;;;4909463;29;20451;-81
2022/08/15 06:22:02;;;;;;;12.20;10.90;;;20.50;99.90;;;;;;4894643;29;20441;-81
2022/08/15 06:24:55;;;;;;;13.15;10.68;;;20.50;99.90;;;;;;4900588;29;20504;-81
2022/08/15 06:27:37;;;;;;;12.55;11.18;;;20.50;99.90;;;;;;4900994;29;20447;-82
2022/08/15 06:30:26;;;;;;;14.88;11.30;;;20.60;99.90;;;;;;4894723;29;20985;-81
2022/08/15 06:33:14;;;;;;;13.07;10.63;;;20.70;99.90;;;;;;4912442;29;20415;-82
2022/08/15 06:35:58;;;;;;;13.40;10.75;;;20.70;99.90;;;;;;4899067;29;20413;-82
2022/08/15 06:38:50;;;;;;;12.07;10.37;;;20.80;99.90;;;;;;4891259;29;20411;-81
2022/08/15 06:41:33;;;;;;;12.85;10.40;;;20.90;99.90;;;;;;4913181;29;20417;-80
2022/08/15 06:44:27;;;;;;;13.23;10.55;;;21.00;99.90;;;;;;4899815;29;20421;-81
2022/08/15 06:47:05;;;;;;;13.60;10.65;;;21.00;99.90;;;;;;4907661;29;20516;-82
2022/08/15 06:49:40;;;;;;;13.98;10.88;;;21.10;99.90;;;;;;4894186;29;20477;-81
2022/08/15 06:52:12;;;;;;;12.13;10.70;;;21.10;99.90;;;;;;4916733;29;20431;-82
2022/08/15 06:54:46;;;;;;;12.65;10.20;;;21.20;99.90;;;;;;4911697;29;20961;-82
2022/08/15 06:57:50;;;;;;;13.07;10.05;;;21.30;99.90;;;;;;4904587;29;20429;-81
2022/08/15 07:01:02;;;;;;;14.27;10.82;;;21.30;99.90;;;;;;4890745;29;20998;-82
2022/08/15 07:04:05;;;;;;;14.80;11.00;;;21.30;99.90;;;;;;4908948;29;20566;-82
2022/08/15 07:07:05;;;;;;;13.65;10.82;;;21.40;99.90;;;;;;4907758;29;20424;-81
2022/08/15 07:09:57;;;;;;;12.75;10.35;;;21.50;99.90;;;;;;4887793;29;20421;-82
2022/08/15 07:12:49;;;;;;;14.10;10.50;;;21.50;99.90;;;;;;4906599;29;20501;-81
2022/08/15 07:15:44;;;;;;;12.73;10.25;;;21.60;99.90;;;;;;4907737;29;20430;-82
2022/08/15 07:18:43;;;;;;;17.90;10.32;;;21.80;99.90;;;;;;4892583;29;20419;-82
2022/08/15 07:21:46;;;;;;;16.88;10.90;;;21.90;99.90;;;;;;4890797;29;20421;-82
2022/08/15 07:24:29;;;;;;;15.23;10.80;;;22.10;99.90;;;;;;4903665;29;20824;-83
2022/08/15 07:27:14;;;;;;;15.02;11.00;;;22.10;99.90;;;;;;4904049;29;20460;-82
2022/08/15 07:29:48;;;;;;;13.98;10.80;;;22.10;99.90;;;;;;4902811;29;20423;-84
2022/08/15 07:32:44;;;;;;;12.30;10.05;;;22.30;99.90;;;;;;4904052;29;20965;-84
2022/08/15 07:35:17;;;;;;;15.95;10.50;;;22.30;99.90;;;;;;4903083;29;20421;-85
2022/08/15 07:38:03;;;;;;;13.48;10.70;;;22.40;99.90;;;;;;4904322;29;20425;-82
2022/08/15 07:41:13;;;;;;;13.73;10.30;;;22.40;99.90;;;;;;4899431;29;20417;-83
2022/08/15 07:43:43;;;;;;;12.67;10.10;;;22.60;99.90;;;;;;4910028;29;20417;-79
2022/08/15 07:46:34;;;;;;;12.90;10.20;;;22.60;99.90;;;;;;4903907;29;20431;-82
2022/08/15 07:49:17;;;;;;;12.13;10.48;;;22.70;99.90;;;;;;4909971;29;20429;-83
2022/08/15 07:52:20;;;;;;;17.80;10.00;;;22.70;99.90;;;;;;4894640;29;20485;-81
2022/08/15 07:55:19;;;;;;;18.52;10.15;;;22.70;99.90;;;;;;4897342;29;20421;-83
2022/08/15 07:58:20;;;;;;;13.67;10.17;;;22.90;99.90;;;;;;4897343;29;20761;-83
2022/08/15 08:01:23;;;;;;;12.15;9.70;;;23.00;99.90;;;;;;4894931;29;20427;-83
2022/08/15 08:04:06;;;;;;;15.02;10.32;;;23.10;99.90;;;;;;4908717;29;20426;-83
2022/08/15 08:07:14;;;;;;;14.68;11.02;;;23.20;99.90;;;;;;4898468;29;20425;-82
2022/08/15 08:10:29;;;;;;;14.25;10.50;;;23.20;99.90;;;;;;4904929;29;20426;-84
2022/08/15 08:13:16;;;;;;;12.77;10.00;;;23.40;99.90;;;;;;4901571;29;20907;-84
2022/08/15 08:15:53;;;;;;;15.27;10.97;;;23.40;99.90;;;;;;4902833;29;20421;-81
2022/08/15 08:19:14;;;;;;;14.55;10.82;;;23.50;99.90;;;;;;4903023;29;20424;-84
2022/08/15 08:21:56;;;;;;;14.48;10.30;;;23.50;99.90;;;;;;4909873;29;20535;-83
2022/08/15 08:24:46;;;;;;;15.00;11.00;;;23.50;99.90;;;;;;4891794;29;20960;-83
2022/08/15 08:27:45;;;;;;;20.63;11.43;;;23.70;99.90;;;;;;4893883;29;20427;-83
2022/08/15 08:30:25;;;;;;;12.80;11.23;;;23.50;99.90;;;;;;4902887;29;20425;-83
2022/08/15 08:33:41;;;;;;;16.10;11.38;;;23.80;99.90;;;;;;4894341;29;20771;-84
2022/08/15 08:36:37;;;;;;;13.82;11.95;;;23.90;99.90;;;;;;4891123;29;20563;-85
2022/08/15 08:39:38;;;;;;;15.30;11.50;;;24.00;99.90;;;;;;4897882;29;20416;-84
2022/08/15 08:42:18;;;;;;;14.45;11.48;;;24.10;99.90;;;;;;4906228;29;20843;-84
2022/08/15 08:44:52;;;;;;;15.32;12.38;;;24.10;99.90;;;;;;4894993;29;20400;-83
2022/08/15 08:47:47;;;;;;;15.43;12.10;;;24.10;99.90;;;;;;4897345;29;20472;-83
2022/08/15 08:50:21;;;;;;;13.95;12.48;;;24.10;99.90;;;;;;4897500;29;20529;-83
2022/08/15 08:53:49;;;;;;;16.73;12.90;;;24.10;99.90;;;;;;4897500;29;20413;-83
2022/08/15 08:56:30;;;;;;;18.00;13.35;;;24.30;99.90;;;;;;4871370;29;20426;-83
2022/08/15 08:59:24;;;;;;;22.50;14.00;;;24.40;99.90;;;;;;4906516;29;20924;-84
2022/08/15 09:02:17;;;;;;;16.75;13.32;;;24.50;99.90;;;;;;4896624;29;20421;-84
2022/08/15 09:05:07;;;;;;;16.65;13.57;;;24.70;99.90;;;;;;4901329;29;20473;-84
2022/08/15 09:07:41;;;;;;;17.15;13.80;;;24.80;99.90;;;;;;4900709;29;20412;-83
2022/08/15 09:10:11;;;;;;;15.98;14.35;;;24.90;99.90;;;;;;4898004;29;20413;-83
2022/08/15 09:15:47;;;;;;;18.98;14.32;;;24.90;99.90;;;;;;4902134;29;20417;-83
2022/08/15 09:18:34;;;;;;;17.73;14.98;;;25.00;99.90;;;;;;4908685;29;20495;-83
2022/08/15 09:21:17;;;;;;;24.95;15.18;;;24.90;99.90;;;;;;4900828;29;20413;-83
2022/08/15 09:23:46;;;;;;;18.05;14.43;;;24.80;99.90;;;;;;4895567;29;20788;-83
2022/08/15 09:26:46;;;;;;;16.88;13.88;;;25.00;99.90;;;;;;5102299;27;20353;-84
2022/08/15 09:29:24;;;;;;;16.58;14.80;;;25.10;99.90;;;;;;5094153;28;20408;-83
2022/08/15 09:32:20;;;;;;;18.23;14.52;;;25.10;99.90;;;;;;5096888;28;20392;-85
2022/08/15 09:35:29;;;;;;;18.40;14.93;;;25.20;99.90;;;;;;5089294;28;20427;-85
2022/08/15 09:38:37;;;;;;;19.15;15.00;;;25.10;99.90;;;;;;5098333;28;20483;-81
2022/08/15 09:41:33;;;;;;;17.02;15.25;;;25.20;99.90;;;;;;5099153;28;20407;-84
2022/08/15 09:44:37;;;;;;;22.33;15.75;;;25.40;99.90;;;;;;5095008;28;20393;-85
2022/08/15 09:47:27;;;;;;;17.23;14.87;;;25.50;99.90;;;;;;5094539;28;20384;-84
2022/08/15 09:50:25;;;;;;;18.13;15.45;;;25.60;99.90;;;;;;5095994;28;20958;-84
2022/08/15 09:53:14;;;;;;;16.30;14.57;;;25.60;99.90;;;;;;5095931;28;20389;-84
2022/08/15 09:55:46;;;;;;;16.95;14.52;;;25.60;99.90;;;;;;5099282;28;20384;-83
2022/08/15 09:58:26;;;;;;;16.77;15.00;;;25.60;99.90;;;;;;5096407;28;20437;-83
2022/08/15 10:01:09;;;;;;;17.35;14.82;;;25.70;99.90;;;;;;5134414;27;20401;-84
2022/08/15 10:03:50;;;;;;;18.67;14.23;;;26.00;99.90;;;;;;5098351;28;20401;-84
2022/08/15 10:06:25;;;;;;;19.75;15.40;;;25.90;99.90;;;;;;5090836;28;20488;-84
2022/08/15 10:09:31;;;;;;;15.95;14.32;;;25.70;99.90;;;;;;5124911;27;20411;-84
2022/08/15 10:12:06;;;;;;;17.50;13.73;;;25.70;99.90;;;;;;5095227;28;20397;-83
2022/08/15 10:14:47;;;;;;;16.40;14.38;;;25.60;99.90;;;;;;5094566;28;20479;-84
2022/08/15 10:17:27;;;;;;;17.65;14.82;;;25.70;99.90;;;;;;5097487;28;20448;-82
2022/08/15 10:19:56;;;;;;;15.60;14.00;;;25.90;99.90;;;;;;5096513;28;20978;-83
2022/08/15 10:22:53;;;;;;;16.35;14.63;;;26.10;99.90;;;;;;5092929;28;20935;-84
2022/08/15 10:25:23;;;;;;;16.73;13.80;;;26.00;99.90;;;;;;5076805;28;20431;-83
2022/08/15 10:28:00;;;;;;;17.25;14.48;;;26.00;99.90;;;;;;5094380;28;20410;-81
2022/08/15 10:31:14;;;;;;;18.85;13.77;;;26.00;99.90;;;;;;5094468;28;20433;-84
2022/08/15 10:33:50;;;;;;;19.00;14.27;;;26.10;99.90;;;;;;5094925;28;20403;-82
2022/08/15 10:36:34;;;;;;;18.33;14.88;;;26.20;99.90;;;;;;5087561;28;20393;-84
2022/08/15 10:39:29;;;;;;;17.30;14.17;;;26.10;99.90;;;;;;5081562;28;20405;-85
2022/08/15 10:42:37;;;;;;;16.65;13.70;;;26.30;99.90;;;;;;5074160;28;20400;-83
2022/08/15 10:45:21;;;;;;;14.30;12.90;;;26.50;99.90;;;;;;5077675;28;20825;-84
2022/08/15 10:47:50;;;;;;;16.25;13.60;;;26.50;99.90;;;;;;5074329;28;20398;-84
2022/08/15 10:51:10;;;;;;;14.98;13.48;;;26.60;99.90;;;;;;5083978;28;20483;-82
2022/08/15 10:53:57;;;;;;;15.27;13.53;;;26.70;99.90;;;;;;5072256;28;20428;-84
2022/08/15 10:56:30;;;;;;;15.85;13.50;;;26.80;99.90;;;;;;5077756;28;20400;-83
2022/08/15 10:59:23;;;;;;;16.90;13.07;;;26.80;99.90;;;;;;5082300;28;20795;-83
2022/08/15 11:02:20;;;;;;;15.00;12.50;;;26.90;99.90;;;;;;5081729;28;20398;-84
2022/08/15 11:05:09;;;;;;;15.38;12.70;;;26.90;99.90;;;;;;5116065;27;20401;-84
2022/08/15 11:07:47;;;;;;;15.57;12.52;;;26.80;99.90;;;;;;5083994;28;20449;-83
2022/08/15 11:10:32;;;;;;;14.50;12.27;;;26.80;99.90;;;;;;5084735;28;20442;-83
2022/08/15 11:13:12;;;;;;;14.95;12.20;;;26.90;99.90;;;;;;5086001;28;20499;-83
2022/08/15 11:15:56;;;;;;;13.85;11.63;;;26.90;99.90;;;;;;5083198;28;20439;-82
2022/08/15 11:18:38;;;;;;;14.85;11.52;;;26.90;99.90;;;;;;5083241;28;20762;-84
2022/08/15 11:21:46;;;;;;;14.40;11.00;;;26.80;99.90;;;;;;5085520;28;20401;-83
2022/08/15 11:24:31;;;;;;;16.93;11.77;;;26.80;99.90;;;;;;5072482;28;20405;-84
2022/08/15 11:27:10;;;;;;;14.23;11.45;;;26.90;99.90;;;;;;5087918;28;20396;-84
2022/08/15 11:29:39;;;;;;;12.75;11.00;;;27.00;99.90;;;;;;5075629;28;20451;-84
2022/08/15 11:32:32;;;;;;;20.98;10.65;;;27.30;99.90;;;;;;5076182;28;20435;-83
2022/08/15 11:35:20;;;;;;;12.85;10.18;;;27.40;99.90;;;;;;5076225;28;20396;-84
2022/08/15 11:37:47;;;;;;;15.13;10.02;;;27.50;99.90;;;;;;5086147;28;20439;-83
2022/08/15 11:40:26;;;;;;;14.03;9.80;;;27.60;99.90;;;;;;5081810;28;20932;-83
2022/08/15 11:42:57;;;;;;;12.82;9.80;;;27.60;99.90;;;;;;5085220;28;20463;-83
2022/08/15 11:45:41;;;;;;;11.98;9.63;;;27.60;99.90;;;;;;5082003;28;20758;-83
2022/08/15 11:48:33;;;;;;;11.85;9.73;;;27.60;99.90;;;;;;5115671;27;20405;-83
2022/08/15 11:51:15;;;;;;;13.07;9.60;;;27.70;99.90;;;;;;5080222;28;20463;-83
2022/08/15 11:54:03;;;;;;;11.30;8.80;;;27.70;99.90;;;;;;5088395;28;20442;-82
2022/08/15 11:56:57;;;;;;;11.55;9.10;;;27.60;99.90;;;;;;5116951;27;20406;-84
2022/08/15 11:59:33;;;;;;;11.50;9.55;;;27.60;99.90;;;;;;5071766;28;20404;-84
2022/08/15 12:02:13;;;;;;;10.02;8.75;;;27.60;99.90;;;;;;5078984;28;20402;-83
2022/08/15 12:05:16;;;;;;;11.25;9.35;;;27.70;99.90;;;;;;5072550;28;20919;-83
2022/08/15 12:08:06;;;;;;;11.27;9.07;;;27.70;99.90;;;;;;5075935;28;20389;-83
2022/08/15 12:11:12;;;;;;;11.13;8.77;;;27.80;99.90;;;;;;5087070;28;20384;-83
2022/08/15 12:14:04;;;;;;;11.23;8.68;;;27.90;99.90;;;;;;5089086;28;20439;-81
2022/08/15 12:16:53;;;;;;;12.45;9.13;;;27.90;99.90;;;;;;5079025;28;20893;-83
2022/08/15 12:19:37;;;;;;;11.18;9.13;;;28.00;99.90;;;;;;5085541;28;20384;-84
2022/08/15 12:22:30;;;;;;;13.80;9.10;;;28.10;99.90;;;;;;5079217;28;20430;-84
2022/08/15 12:25:18;;;;;;;10.18;9.18;;;28.00;99.90;;;;;;5073588;28;20428;-84
2022/08/15 12:28:06;;;;;;;12.30;9.43;;;28.10;99.90;;;;;;5088439;28;20428;-84
2022/08/15 12:31:04;;;;;;;11.10;9.52;;;28.30;99.90;;;;;;5071234;28;20390;-84
2022/08/15 12:33:43;;;;;;;11.38;9.10;;;28.40;99.90;;;;;;5080271;28;20822;-83
2022/08/15 12:36:19;;;;;;;11.60;9.80;;;28.50;99.90;;;;;;5082386;28;20400;-82
2022/08/15 12:39:08;;;;;;;12.38;9.70;;;28.50;99.90;;;;;;5084793;28;20402;-84
2022/08/15 12:41:40;;;;;;;11.10;8.98;;;28.60;99.90;;;;;;5082549;28;20465;-83
2022/08/15 12:44:34;;;;;;;11.45;9.10;;;28.50;99.90;;;;;;5080345;28;20944;-83
2022/08/15 12:47:06;;;;;;;13.35;9.32;;;28.40;99.90;;;;;;5080544;28;20505;-82
2022/08/15 12:49:34;;;;;;;10.95;8.63;;;28.30;99.90;;;;;;5081227;28;20408;-83
2022/08/15 12:52:15;;;;;;;10.20;8.57;;;28.40;99.90;;;;;;5080050;28;20499;-83
2022/08/15 12:54:48;;;;;;;9.68;8.68;;;28.40;99.90;;;;;;5068528;28;20829;-84
2022/08/15 12:57:16;;;;;;;11.93;9.48;;;28.40;99.90;;;;;;5075770;28;20516;-83
2022/08/15 12:59:49;;;;;;;11.73;9.07;;;28.30;99.90;;;;;;5081184;28;20515;-84
2022/08/15 13:02:16;;;;;;;10.85;9.20;;;28.40;99.90;;;;;;5113767;27;20461;-83
2022/08/15 13:05:08;;;;;;;11.45;9.40;;;28.50;99.90;;;;;;5081100;28;20402;-84
2022/08/15 13:07:41;;;;;;;21.80;9.90;;;28.60;99.90;;;;;;5112367;27;20974;-84
2022/08/15 13:10:30;;;;;;;11.85;9.55;;;28.70;99.90;;;;;;5081401;28;20479;-84
2022/08/15 13:13:22;;;;;;;11.68;9.60;;;28.60;99.90;;;;;;5071128;28;20422;-84
2022/08/15 13:15:51;;;;;;;11.48;9.40;;;28.80;99.90;;;;;;5082484;28;20493;-84
2022/08/15 13:18:24;;;;;;;11.05;9.18;;;28.70;99.90;;;;;;5096414;28;20809;-84
2022/08/15 13:23:41;;;;;;;15.20;9.60;;;29.00;99.90;;;;;;5079940;28;20445;-83
2022/08/15 13:26:31;;;;;;;11.43;9.70;;;29.20;99.90;;;;;;5077564;28;20411;-83
2022/08/15 13:29:06;;;;;;;15.73;9.73;;;29.00;99.90;;;;;;5080177;28;20396;-84
2022/08/15 13:31:34;;;;;;;12.48;9.45;;;29.10;99.90;;;;;;5058309;28;20963;-82
2022/08/15 13:34:03;;;;;;;11.45;9.80;;;29.10;99.90;;;;;;5076882;28;20424;-84
2022/08/15 13:36:35;;;;;;;12.57;10.38;;;28.90;99.90;;;;;;5076341;28;20390;-83
2022/08/15 13:39:30;;;;;;;14.02;10.18;;;28.60;99.90;;;;;;5072578;28;20394;-84
2022/08/15 13:42:18;;;;;;;13.55;10.50;;;28.20;99.90;;;;;;5062707;28;20407;-84
2022/08/15 13:45:04;;;;;;;12.67;10.80;;;28.10;99.90;;;;;;5081745;28;20485;-85
2022/08/15 13:47:37;;;;;;;13.15;10.15;;;27.90;99.90;;;;;;5076627;28;20398;-83
2022/08/15 13:50:20;;;;;;;11.95;10.73;;;27.70;99.90;;;;;;5079223;28;20455;-84
2022/08/15 13:52:51;;;;;;;11.60;10.25;;;27.80;99.90;;;;;;5079927;28;20396;-83
2022/08/15 13:55:21;;;;;;;12.55;10.70;;;27.70;99.90;;;;;;5110917;28;20388;-82
2022/08/15 13:57:49;;;;;;;14.17;10.80;;;27.80;99.90;;;;;;5077927;28;20387;-84
2022/08/15 14:00:37;;;;;;;13.20;10.32;;;27.90;99.90;;;;;;5058930;28;20448;-81
2022/08/15 14:03:26;;;;;;;15.43;10.13;;;28.10;99.90;;;;;;5073453;28;20430;-83
2022/08/15 14:06:00;;;;;;;14.15;10.73;;;28.30;99.90;;;;;;5069657;28;20491;-83
2022/08/15 14:08:32;;;;;;;14.90;11.13;;;28.20;99.90;;;;;;5067380;28;20401;-84
2022/08/15 14:11:22;;;;;;;12.30;10.40;;;28.30;99.90;;;;;;5072562;28;20390;-84